sensor_id;sensor_type;location;lat;lon;timestamp;temperature;humidity
16732;DHT22;8484;50.904;9.192;2022-10-31T00:00:00;11.50;99.90
16732;DHT22;8484;50.904;9.192;2022-10-31T00:02:46;11.40;99.90
16732;DHT22;8484;50.904;9.192;2022-10-31T00:05:32;11.50;99.90
16732;DHT22;8484;50.904;9.192;2022-10-31T00:08:17;11.30;99.90
16732;DHT22;8484;50.904;9.192;2022-10-31T00:11:08;11.30;99.90
16732;DHT22;8484;50.904;9.192;2022-10-31T00:13:54;11.70;99.90
16732;DHT22;8484;50.904;9.192;2022-10-31T00:16:40;11.50;99.90
16732;DHT22;8484;50.904;9.192;2022-10-31T00:19:26;11.50;99.90
16732;DHT22;8484;50.904;9.192;2022-10-31T00:22:11;11.50;99.90
16732;DHT22;8484;50.904;9.192;2022-10-31T00:24:57;11.40;99.90
16732;DHT22;8484;50.904;9.192;2022-10-31T00:27:44;11.50;99.90
16732;DHT22;8484;50.904;9.192;2022-10-31T00:30:29;11.50;99.90
16732;DHT22;8484;50.904;9.192;2022-10-31T00:33:15;11.80;99.90
16732;DHT22;8484;50.904;9.192;2022-10-31T00:36:00;11.40;99.90
16732;DHT22;8484;50.904;9.192;2022-10-31T00:38:47;11.50;99.90
16732;DHT22;8484;50.904;9.192;2022-10-31T00:41:32;11.70;99.90
16732;DHT22;8484;50.904;9.192;2022-10-31T00:44:19;10.90;99.90
16732;DHT22;8484;50.904;9.192;2022-10-31T00:47:05;11.50;99.90
16732;DHT22;8484;50.904;9.192;2022-10-31T00:49:50;11.30;99.90
16732;DHT22;8484;50.904;9.192;2022-10-31T00:52:36;11.40;99.90
16732;DHT22;8484;50.904;9.192;2022-10-31T00:55:22;11.50;99.90
16732;DHT22;8484;50.904;9.192;2022-10-31T00:58:07;11.50;99.90
16732;DHT22;8484;50.904;9.192;2022-10-31T01:00:54;11.60;99.90
16732;DHT22;8484;50.904;9.192;2022-10-31T01:03:40;11.70;99.90
16732;DHT22;8484;50.904;9.192;2022-10-31T01:06:25;11.40;99.90
16732;DHT22;8484;50.904;9.192;2022-10-31T01:09:11;11.40;99.90
16732;DHT22;8484;50.904;9.192;2022-10-31T01:11:56;11.50;99.90
16732;DHT22;8484;50.904;9.192;2022-10-31T01:14:43;11.60;99.90
16732;DHT22;8484;50.904;9.192;2022-10-31T01:17:30;11.40;99.90
16732;DHT22;8484;50.904;9.192;2022-10-31T01:20:17;11.70;99.90
16732;DHT22;8484;50.904;9.192;2022-10-31T01:23:02;11.50;99.90
16732;DHT22;8484;50.904;9.192;2022-10-31T01:25:48;11.20;99.90
16732;DHT22;8484;50.904;9.192;2022-10-31T01:28:35;11.20;99.90
16732;DHT22;8484;50.904;9.192;2022-10-31T01:31:22;11.20;99.90
16732;DHT22;8484;50.904;9.192;2022-10-31T01:34:13;11.10;99.90
16732;DHT22;8484;50.904;9.192;2022-10-31T01:36:58;10.80;99.90
16732;DHT22;8484;50.904;9.192;2022-10-31T01:39:44;10.70;99.90
16732;DHT22;8484;50.904;9.192;2022-10-31T01:42:30;10.40;99.90
16732;DHT22;8484;50.904;9.192;2022-10-31T01:45:16;10.30;99.90
16732;DHT22;8484;50.904;9.192;2022-10-31T01:48:02;10.30;99.90
16732;DHT22;8484;50.904;9.192;2022-10-31T01:50:51;10.20;99.90
16732;DHT22;8484;50.904;9.192;2022-10-31T01:53:39;10.20;99.90
16732;DHT22;8484;50.904;9.192;2022-10-31T01:56:25;10.20;99.90
16732;DHT22;8484;50.904;9.192;2022-10-31T01:59:12;10.20;99.90
16732;DHT22;8484;50.904;9.192;2022-10-31T02:02:00;10.20;99.90
16732;DHT22;8484;50.904;9.192;2022-10-31T02:04:48;10.90;99.90
16732;DHT22;8484;50.904;9.192;2022-10-31T02:07:39;10.40;99.90
16732;DHT22;8484;50.904;9.192;2022-10-31T02:10:27;10.60;99.90
16732;DHT22;8484;50.904;9.192;2022-10-31T02:13:14;10.80;99.90
16732;DHT22;8484;50.904;9.192;2022-10-31T02:16:01;10.90;99.90
16732;DHT22;8484;50.904;9.192;2022-10-31T02:18:46;10.70;99.90
16732;DHT22;8484;50.904;9.192;2022-10-31T02:21:39;10.80;99.90
16732;DHT22;8484;50.904;9.192;2022-10-31T02:24:56;10.90;99.90
16732;DHT22;8484;50.904;9.192;2022-10-31T02:28:01;10.60;99.90
16732;DHT22;8484;50.904;9.192;2022-10-31T02:31:00;10.60;99.90
16732;DHT22;8484;50.904;9.192;2022-10-31T02:33:51;10.20;99.90
16732;DHT22;8484;50.904;9.192;2022-10-31T02:36:42;10.30;99.90
16732;DHT22;8484;50.904;9.192;2022-10-31T02:39:33;10.40;99.90
16732;DHT22;8484;50.904;9.192;2022-10-31T02:42:26;10.60;99.90
16732;DHT22;8484;50.904;9.192;2022-10-31T02:45:19;10.50;99.90
16732;DHT22;8484;50.904;9.192;2022-10-31T02:48:09;10.30;99.90
16732;DHT22;8484;50.904;9.192;2022-10-31T02:50:58;10.20;99.90
16732;DHT22;8484;50.904;9.192;2022-10-31T02:53:45;10.10;99.90
16732;DHT22;8484;50.904;9.192;2022-10-31T02:56:30;10.30;99.90
16732;DHT22;8484;50.904;9.192;2022-10-31T02:59:16;10.40;99.90
16732;DHT22;8484;50.904;9.192;2022-10-31T03:02:19;10.00;99.90
16732;DHT22;8484;50.904;9.192;2022-10-31T03:08:06;9.90;99.90
16732;DHT22;8484;50.904;9.192;2022-10-31T03:10:55;9.90;99.90
16732;DHT22;8484;50.904;9.192;2022-10-31T03:13:46;10.50;99.90
16732;DHT22;8484;50.904;9.192;2022-10-31T03:16:41;9.80;99.90
16732;DHT22;8484;50.904;9.192;2022-10-31T03:19:33;9.70;99.90
16732;DHT22;8484;50.904;9.192;2022-10-31T03:22:21;9.90;99.90
16732;DHT22;8484;50.904;9.192;2022-10-31T03:25:09;9.90;99.90
16732;DHT22;8484;50.904;9.192;2022-10-31T03:27:56;9.90;99.90
16732;DHT22;8484;50.904;9.192;2022-10-31T03:30:42;9.90;99.90
16732;DHT22;8484;50.904;9.192;2022-10-31T03:33:31;9.90;99.90
16732;DHT22;8484;50.904;9.192;2022-10-31T03:36:18;9.90;99.90
16732;DHT22;8484;50.904;9.192;2022-10-31T03:39:05;9.90;99.90
16732;DHT22;8484;50.904;9.192;2022-10-31T03:41:57;9.80;99.90
16732;DHT22;8484;50.904;9.192;2022-10-31T03:44:48;9.80;99.90
16732;DHT22;8484;50.904;9.192;2022-10-31T03:47:37;10.00;99.90
16732;DHT22;8484;50.904;9.192;2022-10-31T03:50:25;9.70;99.90
16732;DHT22;8484;50.904;9.192;2022-10-31T03:53:16;9.60;99.90
16732;DHT22;8484;50.904;9.192;2022-10-31T03:56:09;9.50;99.90
16732;DHT22;8484;50.904;9.192;2022-10-31T03:59:00;9.70;99.90
16732;DHT22;8484;50.904;9.192;2022-10-31T04:01:50;10.10;99.90
16732;DHT22;8484;50.904;9.192;2022-10-31T04:04:37;9.20;99.90
16732;DHT22;8484;50.904;9.192;2022-10-31T04:07:27;9.30;99.90
16732;DHT22;8484;50.904;9.192;2022-10-31T04:10:15;9.30;99.90
16732;DHT22;8484;50.904;9.192;2022-10-31T04:13:03;9.00;99.90
16732;DHT22;8484;50.904;9.192;2022-10-31T04:15:52;9.00;99.90
16732;DHT22;8484;50.904;9.192;2022-10-31T04:18:39;9.00;99.90
16732;DHT22;8484;50.904;9.192;2022-10-31T04:21:28;8.90;99.90
16732;DHT22;8484;50.904;9.192;2022-10-31T04:24:14;8.90;99.90
16732;DHT22;8484;50.904;9.192;2022-10-31T04:27:00;8.90;99.90
16732;DHT22;8484;50.904;9.192;2022-10-31T04:29:45;9.00;99.90
16732;DHT22;8484;50.904;9.192;2022-10-31T04:32:32;9.00;99.90
16732;DHT22;8484;50.904;9.192;2022-10-31T04:35:18;9.10;99.90
16732;DHT22;8484;50.904;9.192;2022-10-31T04:38:03;9.20;99.90
16732;DHT22;8484;50.904;9.192;2022-10-31T04:40:49;9.10;99.90
16732;DHT22;8484;50.904;9.192;2022-10-31T04:43:35;9.70;99.90
16732;DHT22;8484;50.904;9.192;2022-10-31T04:46:20;9.10;99.90
16732;DHT22;8484;50.904;9.192;2022-10-31T04:49:07;9.10;99.90
16732;DHT22;8484;50.904;9.192;2022-10-31T04:51:53;9.10;99.90
16732;DHT22;8484;50.904;9.192;2022-10-31T04:54:38;9.20;99.90
16732;DHT22;8484;50.904;9.192;2022-10-31T04:57:24;9.30;99.90
16732;DHT22;8484;50.904;9.192;2022-10-31T05:00:11;9.30;99.90
16732;DHT22;8484;50.904;9.192;2022-10-31T05:02:57;9.40;99.90
16732;DHT22;8484;50.904;9.192;2022-10-31T05:05:44;9.40;99.90
16732;DHT22;8484;50.904;9.192;2022-10-31T05:08:30;9.30;99.90
16732;DHT22;8484;50.904;9.192;2022-10-31T05:11:16;9.20;99.90
16732;DHT22;8484;50.904;9.192;2022-10-31T05:14:02;9.20;99.90
16732;DHT22;8484;50.904;9.192;2022-10-31T05:16:47;9.30;99.90
16732;DHT22;8484;50.904;9.192;2022-10-31T05:19:33;9.30;99.90
16732;DHT22;8484;50.904;9.192;2022-10-31T05:22:20;9.40;99.90
16732;DHT22;8484;50.904;9.192;2022-10-31T05:25:06;9.50;99.90
16732;DHT22;8484;50.904;9.192;2022-10-31T05:27:52;9.40;99.90
16732;DHT22;8484;50.904;9.192;2022-10-31T05:30:38;9.40;99.90
16732;DHT22;8484;50.904;9.192;2022-10-31T05:33:24;9.40;99.90
16732;DHT22;8484;50.904;9.192;2022-10-31T05:36:10;9.40;99.90
16732;DHT22;8484;50.904;9.192;2022-10-31T05:38:57;9.20;99.90
16732;DHT22;8484;50.904;9.192;2022-10-31T05:41:42;9.20;99.90
16732;DHT22;8484;50.904;9.192;2022-10-31T05:44:27;9.10;99.90
16732;DHT22;8484;50.904;9.192;2022-10-31T05:47:13;9.20;99.90
16732;DHT22;8484;50.904;9.192;2022-10-31T05:49:58;9.50;99.90
16732;DHT22;8484;50.904;9.192;2022-10-31T05:52:44;9.10;99.90
16732;DHT22;8484;50.904;9.192;2022-10-31T05:55:31;9.30;99.90
16732;DHT22;8484;50.904;9.192;2022-10-31T05:58:17;9.30;99.90
16732;DHT22;8484;50.904;9.192;2022-10-31T06:01:02;9.30;99.90
16732;DHT22;8484;50.904;9.192;2022-10-31T06:03:48;9.20;99.90
16732;DHT22;8484;50.904;9.192;2022-10-31T06:06:33;9.10;99.90
16732;DHT22;8484;50.904;9.192;2022-10-31T06:09:19;9.20;99.90
16732;DHT22;8484;50.904;9.192;2022-10-31T06:12:06;9.20;99.90
16732;DHT22;8484;50.904;9.192;2022-10-31T06:14:52;9.10;99.90
16732;DHT22;8484;50.904;9.192;2022-10-31T06:17:37;9.10;99.90
16732;DHT22;8484;50.904;9.192;2022-10-31T06:20:23;9.20;99.90
16732;DHT22;8484;50.904;9.192;2022-10-31T06:23:08;9.20;99.90
16732;DHT22;8484;50.904;9.192;2022-10-31T06:25:54;9.00;99.90
16732;DHT22;8484;50.904;9.192;2022-10-31T06:28:41;9.10;99.90
16732;DHT22;8484;50.904;9.192;2022-10-31T06:31:26;9.30;99.90
16732;DHT22;8484;50.904;9.192;2022-10-31T06:34:12;9.40;99.90
16732;DHT22;8484;50.904;9.192;2022-10-31T06:36:57;9.30;99.90
16732;DHT22;8484;50.904;9.192;2022-10-31T06:39:43;9.10;99.90
16732;DHT22;8484;50.904;9.192;2022-10-31T06:42:29;9.10;99.90
16732;DHT22;8484;50.904;9.192;2022-10-31T06:45:16;9.00;99.90
16732;DHT22;8484;50.904;9.192;2022-10-31T06:48:01;9.30;99.90
16732;DHT22;8484;50.904;9.192;2022-10-31T06:50:47;8.60;99.90
16732;DHT22;8484;50.904;9.192;2022-10-31T06:53:32;8.60;99.90
16732;DHT22;8484;50.904;9.192;2022-10-31T06:56:18;8.50;99.90
16732;DHT22;8484;50.904;9.192;2022-10-31T06:59:04;8.50;99.90
16732;DHT22;8484;50.904;9.192;2022-10-31T07:01:50;8.40;99.90
16732;DHT22;8484;50.904;9.192;2022-10-31T07:04:36;9.10;99.90
16732;DHT22;8484;50.904;9.192;2022-10-31T07:07:22;8.60;99.90
16732;DHT22;8484;50.904;9.192;2022-10-31T07:10:08;8.60;99.90
16732;DHT22;8484;50.904;9.192;2022-10-31T07:12:57;8.90;99.90
16732;DHT22;8484;50.904;9.192;2022-10-31T07:15:43;9.00;99.90
16732;DHT22;8484;50.904;9.192;2022-10-31T07:18:30;9.00;99.90
16732;DHT22;8484;50.904;9.192;2022-10-31T07:21:16;8.70;99.90
16732;DHT22;8484;50.904;9.192;2022-10-31T07:24:01;8.90;99.90
16732;DHT22;8484;50.904;9.192;2022-10-31T07:26:47;8.80;99.90
16732;DHT22;8484;50.904;9.192;2022-10-31T07:29:33;8.90;99.90
16732;DHT22;8484;50.904;9.192;2022-10-31T07:32:19;9.40;99.90
16732;DHT22;8484;50.904;9.192;2022-10-31T07:35:06;10.00;99.90
16732;DHT22;8484;50.904;9.192;2022-10-31T07:37:52;10.30;99.90
16732;DHT22;8484;50.904;9.192;2022-10-31T07:40:37;10.60;99.90
16732;DHT22;8484;50.904;9.192;2022-10-31T07:43:23;10.80;99.90
16732;DHT22;8484;50.904;9.192;2022-10-31T07:46:08;10.80;99.90
16732;DHT22;8484;50.904;9.192;2022-10-31T07:48:55;10.70;99.90
16732;DHT22;8484;50.904;9.192;2022-10-31T07:51:42;10.90;99.90
16732;DHT22;8484;50.904;9.192;2022-10-31T07:54:27;10.90;99.90
16732;DHT22;8484;50.904;9.192;2022-10-31T07:57:13;11.10;99.90
16732;DHT22;8484;50.904;9.192;2022-10-31T07:59:58;10.80;99.90
16732;DHT22;8484;50.904;9.192;2022-10-31T08:02:44;11.00;99.90
16732;DHT22;8484;50.904;9.192;2022-10-31T08:05:30;10.70;99.90
16732;DHT22;8484;50.904;9.192;2022-10-31T08:08:18;11.00;99.90
16732;DHT22;8484;50.904;9.192;2022-10-31T08:11:03;12.10;99.90
16732;DHT22;8484;50.904;9.192;2022-10-31T08:13:49;13.30;99.90
16732;DHT22;8484;50.904;9.192;2022-10-31T08:16:34;14.20;99.90
16732;DHT22;8484;50.904;9.192;2022-10-31T08:19:20;14.50;99.90
16732;DHT22;8484;50.904;9.192;2022-10-31T08:22:06;15.00;99.90
16732;DHT22;8484;50.904;9.192;2022-10-31T08:24:53;15.50;99.90
16732;DHT22;8484;50.904;9.192;2022-10-31T08:27:38;15.50;99.90
16732;DHT22;8484;50.904;9.192;2022-10-31T08:30:25;16.10;99.90
16732;DHT22;8484;50.904;9.192;2022-10-31T08:33:12;16.60;99.90
16732;DHT22;8484;50.904;9.192;2022-10-31T08:35:58;17.10;99.90
16732;DHT22;8484;50.904;9.192;2022-10-31T08:38:43;17.40;99.90
16732;DHT22;8484;50.904;9.192;2022-10-31T08:41:31;17.00;99.90
16732;DHT22;8484;50.904;9.192;2022-10-31T08:44:16;17.00;99.90
16732;DHT22;8484;50.904;9.192;2022-10-31T08:47:02;17.10;99.90
16732;DHT22;8484;50.904;9.192;2022-10-31T08:49:47;17.20;99.90
16732;DHT22;8484;50.904;9.192;2022-10-31T08:52:33;16.20;99.90
16732;DHT22;8484;50.904;9.192;2022-10-31T08:55:19;15.90;99.90
16732;DHT22;8484;50.904;9.192;2022-10-31T08:58:07;16.60;99.90
16732;DHT22;8484;50.904;9.192;2022-10-31T09:00:54;17.90;99.90
16732;DHT22;8484;50.904;9.192;2022-10-31T09:03:40;18.10;99.90
16732;DHT22;8484;50.904;9.192;2022-10-31T09:06:25;19.50;99.90
16732;DHT22;8484;50.904;9.192;2022-10-31T09:09:11;19.30;99.90
16732;DHT22;8484;50.904;9.192;2022-10-31T09:11:57;20.20;99.90
16732;DHT22;8484;50.904;9.192;2022-10-31T09:14:44;19.90;99.90
16732;DHT22;8484;50.904;9.192;2022-10-31T09:17:30;19.00;99.90
16732;DHT22;8484;50.904;9.192;2022-10-31T09:20:15;18.20;99.90
16732;DHT22;8484;50.904;9.192;2022-10-31T09:23:02;18.00;99.90
16732;DHT22;8484;50.904;9.192;2022-10-31T09:25:50;18.00;99.90
16732;DHT22;8484;50.904;9.192;2022-10-31T09:28:35;17.80;99.90
16732;DHT22;8484;50.904;9.192;2022-10-31T09:31:22;18.80;99.90
16732;DHT22;8484;50.904;9.192;2022-10-31T09:34:08;19.10;99.90
16732;DHT22;8484;50.904;9.192;2022-10-31T09:36:53;19.60;99.90
16732;DHT22;8484;50.904;9.192;2022-10-31T09:39:39;20.00;99.90
16732;DHT22;8484;50.904;9.192;2022-10-31T09:42:43;19.70;99.90
16732;DHT22;8484;50.904;9.192;2022-10-31T09:45:37;19.20;99.90
16732;DHT22;8484;50.904;9.192;2022-10-31T09:48:35;19.40;99.90
16732;DHT22;8484;50.904;9.192;2022-10-31T09:51:25;21.10;99.90
16732;DHT22;8484;50.904;9.192;2022-10-31T09:54:17;21.80;99.90
16732;DHT22;8484;50.904;9.192;2022-10-31T09:57:03;22.20;99.90
16732;DHT22;8484;50.904;9.192;2022-10-31T09:59:50;22.60;99.90
16732;DHT22;8484;50.904;9.192;2022-10-31T10:02:38;22.90;99.90
16732;DHT22;8484;50.904;9.192;2022-10-31T10:05:29;23.00;99.90
16732;DHT22;8484;50.904;9.192;2022-10-31T10:08:20;23.00;99.90
16732;DHT22;8484;50.904;9.192;2022-10-31T10:11:17;22.20;99.90
16732;DHT22;8484;50.904;9.192;2022-10-31T10:14:23;21.00;99.90
16732;DHT22;8484;50.904;9.192;2022-10-31T10:17:22;21.10;99.90
16732;DHT22;8484;50.904;9.192;2022-10-31T10:20:24;21.40;99.90
16732;DHT22;8484;50.904;9.192;2022-10-31T10:23:32;21.40;99.90
16732;DHT22;8484;50.904;9.192;2022-10-31T10:26:21;21.80;99.90
16732;DHT22;8484;50.904;9.192;2022-10-31T10:29:19;23.00;99.90
16732;DHT22;8484;50.904;9.192;2022-10-31T10:32:14;22.10;99.90
16732;DHT22;8484;50.904;9.192;2022-10-31T10:35:23;22.70;99.90
16732;DHT22;8484;50.904;9.192;2022-10-31T10:38:17;22.70;99.90
16732;DHT22;8484;50.904;9.192;2022-10-31T10:41:11;23.20;99.90
16732;DHT22;8484;50.904;9.192;2022-10-31T10:43:59;23.50;99.90
16732;DHT22;8484;50.904;9.192;2022-10-31T10:46:53;23.80;99.90
16732;DHT22;8484;50.904;9.192;2022-10-31T10:50:01;24.00;99.90
16732;DHT22;8484;50.904;9.192;2022-10-31T10:52:56;24.80;99.90
16732;DHT22;8484;50.904;9.192;2022-10-31T10:55:48;24.60;99.90
16732;DHT22;8484;50.904;9.192;2022-10-31T10:58:38;24.90;99.90
16732;DHT22;8484;50.904;9.192;2022-10-31T11:01:24;25.40;99.90
16732;DHT22;8484;50.904;9.192;2022-10-31T11:04:29;26.00;99.90
16732;DHT22;8484;50.904;9.192;2022-10-31T11:07:15;26.00;99.90
16732;DHT22;8484;50.904;9.192;2022-10-31T11:10:04;25.80;99.90
16732;DHT22;8484;50.904;9.192;2022-10-31T11:13:06;25.80;99.90
16732;DHT22;8484;50.904;9.192;2022-10-31T11:16:04;25.70;99.90
16732;DHT22;8484;50.904;9.192;2022-10-31T11:18:51;26.70;99.90
16732;DHT22;8484;50.904;9.192;2022-10-31T11:21:37;26.40;99.90
16732;DHT22;8484;50.904;9.192;2022-10-31T11:24:24;25.60;99.90
16732;DHT22;8484;50.904;9.192;2022-10-31T11:27:16;25.50;99.90
16732;DHT22;8484;50.904;9.192;2022-10-31T11:30:06;24.70;99.90
16732;DHT22;8484;50.904;9.192;2022-10-31T11:32:53;24.10;99.90
16732;DHT22;8484;50.904;9.192;2022-10-31T11:35:40;23.30;99.90
16732;DHT22;8484;50.904;9.192;2022-10-31T11:38:31;23.30;99.90
16732;DHT22;8484;50.904;9.192;2022-10-31T11:41:19;23.60;99.90
16732;DHT22;8484;50.904;9.192;2022-10-31T11:44:12;23.70;99.90
16732;DHT22;8484;50.904;9.192;2022-10-31T11:47:01;24.60;99.90
16732;DHT22;8484;50.904;9.192;2022-10-31T11:49:49;24.10;99.90
16732;DHT22;8484;50.904;9.192;2022-10-31T11:52:37;24.00;99.90
16732;DHT22;8484;50.904;9.192;2022-10-31T11:55:33;22.80;99.90
16732;DHT22;8484;50.904;9.192;2022-10-31T11:58:20;22.60;99.90
16732;DHT22;8484;50.904;9.192;2022-10-31T12:01:08;22.50;99.90
16732;DHT22;8484;50.904;9.192;2022-10-31T12:04:10;22.40;99.90
16732;DHT22;8484;50.904;9.192;2022-10-31T12:06:57;21.70;99.90
16732;DHT22;8484;50.904;9.192;2022-10-31T12:09:43;21.00;99.90
16732;DHT22;8484;50.904;9.192;2022-10-31T12:12:50;20.30;99.90
16732;DHT22;8484;50.904;9.192;2022-10-31T12:15:38;20.30;99.90
16732;DHT22;8484;50.904;9.192;2022-10-31T12:18:46;20.30;99.90
16732;DHT22;8484;50.904;9.192;2022-10-31T12:24:54;20.20;99.90
16732;DHT22;8484;50.904;9.192;2022-10-31T12:28:00;20.70;99.90
16732;DHT22;8484;50.904;9.192;2022-10-31T12:30:58;20.50;99.90
16732;DHT22;8484;50.904;9.192;2022-10-31T12:33:54;20.80;99.90
16732;DHT22;8484;50.904;9.192;2022-10-31T12:36:48;20.80;99.90
16732;DHT22;8484;50.904;9.192;2022-10-31T12:39:42;20.30;99.90
16732;DHT22;8484;50.904;9.192;2022-10-31T12:42:46;20.40;99.90
16732;DHT22;8484;50.904;9.192;2022-10-31T12:45:47;20.40;99.90
16732;DHT22;8484;50.904;9.192;2022-10-31T12:52:05;20.50;99.90
16732;DHT22;8484;50.904;9.192;2022-10-31T12:55:04;19.80;99.90
16732;DHT22;8484;50.904;9.192;2022-10-31T12:57:56;19.90;99.90
16732;DHT22;8484;50.904;9.192;2022-10-31T13:00:45;19.90;99.90
16732;DHT22;8484;50.904;9.192;2022-10-31T13:03:36;19.90;99.90
16732;DHT22;8484;50.904;9.192;2022-10-31T13:06:29;19.80;99.90
16732;DHT22;8484;50.904;9.192;2022-10-31T13:09:22;19.40;99.90
16732;DHT22;8484;50.904;9.192;2022-10-31T13:12:10;19.30;99.90
16732;DHT22;8484;50.904;9.192;2022-10-31T13:15:01;19.10;99.90
16732;DHT22;8484;50.904;9.192;2022-10-31T13:17:50;19.00;99.90
16732;DHT22;8484;50.904;9.192;2022-10-31T13:20:40;19.00;99.90
16732;DHT22;8484;50.904;9.192;2022-10-31T13:23:28;19.00;99.90
16732;DHT22;8484;50.904;9.192;2022-10-31T13:26:21;19.00;99.90
16732;DHT22;8484;50.904;9.192;2022-10-31T13:29:15;19.00;99.90
16732;DHT22;8484;50.904;9.192;2022-10-31T13:32:06;18.60;99.90
16732;DHT22;8484;50.904;9.192;2022-10-31T13:34:53;18.60;99.90
16732;DHT22;8484;50.904;9.192;2022-10-31T13:37:43;18.60;99.90
16732;DHT22;8484;50.904;9.192;2022-10-31T13:40:36;18.50;99.90
16732;DHT22;8484;50.904;9.192;2022-10-31T13:43:28;18.60;99.90
16732;DHT22;8484;50.904;9.192;2022-10-31T13:46:23;18.50;99.90
16732;DHT22;8484;50.904;9.192;2022-10-31T13:49:37;18.70;99.90
16732;DHT22;8484;50.904;9.192;2022-10-31T13:52:29;18.60;99.90
16732;DHT22;8484;50.904;9.192;2022-10-31T13:55:38;18.70;99.90
16732;DHT22;8484;50.904;9.192;2022-10-31T13:58:25;18.40;99.90
16732;DHT22;8484;50.904;9.192;2022-10-31T14:01:15;18.50;99.90
16732;DHT22;8484;50.904;9.192;2022-10-31T14:04:04;18.60;99.90
16732;DHT22;8484;50.904;9.192;2022-10-31T14:06:59;18.60;99.90
16732;DHT22;8484;50.904;9.192;2022-10-31T14:09:54;18.70;99.90
16732;DHT22;8484;50.904;9.192;2022-10-31T14:12:42;18.60;99.90
16732;DHT22;8484;50.904;9.192;2022-10-31T14:15:28;18.50;99.90
16732;DHT22;8484;50.904;9.192;2022-10-31T14:18:21;18.40;99.90
16732;DHT22;8484;50.904;9.192;2022-10-31T14:21:16;18.40;99.90
16732;DHT22;8484;50.904;9.192;2022-10-31T14:24:13;18.30;99.90
16732;DHT22;8484;50.904;9.192;2022-10-31T14:27:00;18.20;99.90
16732;DHT22;8484;50.904;9.192;2022-10-31T14:29:46;17.90;99.90
16732;DHT22;8484;50.904;9.192;2022-10-31T14:32:32;18.00;99.90
16732;DHT22;8484;50.904;9.192;2022-10-31T14:35:21;17.70;99.90
16732;DHT22;8484;50.904;9.192;2022-10-31T14:44:58;17.40;99.90
16732;DHT22;8484;50.904;9.192;2022-10-31T14:47:55;17.30;99.90
16732;DHT22;8484;50.904;9.192;2022-10-31T14:50:47;17.30;99.90
16732;DHT22;8484;50.904;9.192;2022-10-31T14:53:35;17.40;99.90
16732;DHT22;8484;50.904;9.192;2022-10-31T14:56:24;17.50;99.90
16732;DHT22;8484;50.904;9.192;2022-10-31T14:59:15;17.40;99.90
16732;DHT22;8484;50.904;9.192;2022-10-31T15:02:08;17.40;99.90
16732;DHT22;8484;50.904;9.192;2022-10-31T15:04:55;17.30;99.90
16732;DHT22;8484;50.904;9.192;2022-10-31T15:07:50;17.10;99.90
16732;DHT22;8484;50.904;9.192;2022-10-31T15:10:37;17.10;99.90
16732;DHT22;8484;50.904;9.192;2022-10-31T15:13:23;17.00;99.90
16732;DHT22;8484;50.904;9.192;2022-10-31T15:16:11;17.10;99.90
16732;DHT22;8484;50.904;9.192;2022-10-31T15:18:59;17.00;99.90
16732;DHT22;8484;50.904;9.192;2022-10-31T15:21:46;17.00;99.90
16732;DHT22;8484;50.904;9.192;2022-10-31T15:24:33;17.00;99.90
16732;DHT22;8484;50.904;9.192;2022-10-31T15:27:20;16.90;99.90
16732;DHT22;8484;50.904;9.192;2022-10-31T15:30:17;16.80;99.90
16732;DHT22;8484;50.904;9.192;2022-10-31T15:33:18;16.90;99.90
16732;DHT22;8484;50.904;9.192;2022-10-31T15:36:05;16.80;99.90
16732;DHT22;8484;50.904;9.192;2022-10-31T15:38:50;16.80;99.90
16732;DHT22;8484;50.904;9.192;2022-10-31T15:41:42;16.60;99.90
16732;DHT22;8484;50.904;9.192;2022-10-31T15:44:31;16.50;99.90
16732;DHT22;8484;50.904;9.192;2022-10-31T15:47:20;16.50;99.90
16732;DHT22;8484;50.904;9.192;2022-10-31T15:50:20;16.30;99.90
16732;DHT22;8484;50.904;9.192;2022-10-31T15:53:15;16.20;99.90
16732;DHT22;8484;50.904;9.192;2022-10-31T15:56:04;16.20;99.90
16732;DHT22;8484;50.904;9.192;2022-10-31T15:58:52;16.00;99.90
16732;DHT22;8484;50.904;9.192;2022-10-31T16:01:38;15.90;99.90
16732;DHT22;8484;50.904;9.192;2022-10-31T16:04:23;15.90;99.90
16732;DHT22;8484;50.904;9.192;2022-10-31T16:07:14;16.00;99.90
16732;DHT22;8484;50.904;9.192;2022-10-31T16:10:02;16.00;99.90
16732;DHT22;8484;50.904;9.192;2022-10-31T16:12:48;16.00;99.90
16732;DHT22;8484;50.904;9.192;2022-10-31T16:15:34;15.90;99.90
16732;DHT22;8484;50.904;9.192;2022-10-31T16:18:19;15.80;99.90
16732;DHT22;8484;50.904;9.192;2022-10-31T16:21:06;15.80;99.90
16732;DHT22;8484;50.904;9.192;2022-10-31T16:23:56;15.70;99.90
16732;DHT22;8484;50.904;9.192;2022-10-31T16:26:47;15.60;99.90
16732;DHT22;8484;50.904;9.192;2022-10-31T16:29:36;15.70;99.90
16732;DHT22;8484;50.904;9.192;2022-10-31T16:32:30;15.90;99.90
16732;DHT22;8484;50.904;9.192;2022-10-31T16:35:21;15.70;99.90
16732;DHT22;8484;50.904;9.192;2022-10-31T16:38:08;15.60;99.90
16732;DHT22;8484;50.904;9.192;2022-10-31T16:40:55;15.50;99.90
16732;DHT22;8484;50.904;9.192;2022-10-31T16:43:40;15.60;99.90
16732;DHT22;8484;50.904;9.192;2022-10-31T16:46:27;15.50;99.90
16732;DHT22;8484;50.904;9.192;2022-10-31T16:49:24;15.50;99.90
16732;DHT22;8484;50.904;9.192;2022-10-31T16:52:10;15.50;99.90
16732;DHT22;8484;50.904;9.192;2022-10-31T16:54:56;15.30;99.90
16732;DHT22;8484;50.904;9.192;2022-10-31T16:57:45;15.20;99.90
16732;DHT22;8484;50.904;9.192;2022-10-31T17:00:30;15.20;99.90
16732;DHT22;8484;50.904;9.192;2022-10-31T17:03:16;15.10;99.90
16732;DHT22;8484;50.904;9.192;2022-10-31T17:06:01;14.90;99.90
16732;DHT22;8484;50.904;9.192;2022-10-31T17:08:47;14.80;99.90
16732;DHT22;8484;50.904;9.192;2022-10-31T17:11:33;14.90;99.90
16732;DHT22;8484;50.904;9.192;2022-10-31T17:14:20;14.90;99.90
16732;DHT22;8484;50.904;9.192;2022-10-31T17:17:07;14.90;99.90
16732;DHT22;8484;50.904;9.192;2022-10-31T17:19:53;14.80;99.90
16732;DHT22;8484;50.904;9.192;2022-10-31T17:22:39;14.70;99.90
16732;DHT22;8484;50.904;9.192;2022-10-31T17:25:26;14.80;99.90
16732;DHT22;8484;50.904;9.192;2022-10-31T17:28:13;14.80;99.90
16732;DHT22;8484;50.904;9.192;2022-10-31T17:31:00;14.50;99.90
16732;DHT22;8484;50.904;9.192;2022-10-31T17:33:46;14.50;99.90
16732;DHT22;8484;50.904;9.192;2022-10-31T17:36:32;14.60;99.90
16732;DHT22;8484;50.904;9.192;2022-10-31T17:39:18;14.70;99.90
16732;DHT22;8484;50.904;9.192;2022-10-31T17:42:03;14.60;99.90
16732;DHT22;8484;50.904;9.192;2022-10-31T17:44:49;14.40;99.90
16732;DHT22;8484;50.904;9.192;2022-10-31T17:47:36;14.40;99.90
16732;DHT22;8484;50.904;9.192;2022-10-31T17:50:23;14.00;99.90
16732;DHT22;8484;50.904;9.192;2022-10-31T17:53:10;13.90;99.90
16732;DHT22;8484;50.904;9.192;2022-10-31T17:55:59;13.90;99.90
16732;DHT22;8484;50.904;9.192;2022-10-31T17:58:45;14.00;99.90
16732;DHT22;8484;50.904;9.192;2022-10-31T18:01:30;14.40;99.90
16732;DHT22;8484;50.904;9.192;2022-10-31T18:04:17;14.60;99.90
16732;DHT22;8484;50.904;9.192;2022-10-31T18:07:03;14.40;99.90
16732;DHT22;8484;50.904;9.192;2022-10-31T18:09:49;14.30;99.90
16732;DHT22;8484;50.904;9.192;2022-10-31T18:12:35;14.30;99.90
16732;DHT22;8484;50.904;9.192;2022-10-31T18:15:20;14.30;99.90
16732;DHT22;8484;50.904;9.192;2022-10-31T18:18:06;14.30;99.90
16732;DHT22;8484;50.904;9.192;2022-10-31T18:20:56;14.30;99.90
16732;DHT22;8484;50.904;9.192;2022-10-31T18:23:41;14.40;99.90